createdAt,value
2017-12-06T00:00:26.942Z,13.63
2017-12-06T00:02:55.401Z,12.47
2017-12-06T00:05:23.031Z,13.53
2017-12-06T00:07:50.658Z,13.40
2017-12-06T00:10:18.295Z,12.80
2017-12-06T00:12:52.300Z,12.83
2017-12-06T00:15:25.544Z,12.37
2017-12-06T00:17:53.148Z,12.57
2017-12-06T00:20:20.789Z,13.43
2017-12-06T00:22:48.437Z,14.17
2017-12-06T00:25:16.087Z,13.53
2017-12-06T00:27:43.760Z,13.63
2017-12-06T00:30:12.130Z,12.83
2017-12-06T00:32:39.778Z,12.63
2017-12-06T00:35:07.388Z,12.67
2017-12-06T00:37:35.020Z,13.10
2017-12-06T00:40:02.641Z,14.00
2017-12-06T00:42:31.032Z,13.03
2017-12-06T00:44:58.662Z,12.40
2017-12-06T00:47:26.317Z,13.13
2017-12-06T00:49:53.929Z,13.70
2017-12-06T00:52:21.614Z,13.63
2017-12-06T00:54:49.231Z,13.03
2017-12-06T00:57:17.609Z,12.33
2017-12-06T00:59:46.033Z,13.23
2017-12-06T01:02:14.437Z,13.60
2017-12-06T01:04:42.064Z,13.47
2017-12-06T01:07:09.966Z,12.23
2017-12-06T01:09:37.571Z,14.10
2017-12-06T01:12:05.943Z,12.90
2017-12-06T01:14:34.369Z,13.50
2017-12-06T01:17:01.982Z,12.57
2017-12-06T01:19:30.390Z,13.73
2017-12-06T01:21:58.000Z,12.13
2017-12-06T01:24:25.669Z,12.67
2017-12-06T01:26:53.349Z,13.13
2017-12-06T01:29:20.957Z,13.00
2017-12-06T01:31:48.576Z,12.07
2017-12-06T01:34:16.216Z,12.93
2017-12-06T01:36:43.850Z,11.77
2017-12-06T01:39:11.525Z,12.47
2017-12-06T01:41:39.139Z,12.40
2017-12-06T01:44:06.747Z,12.30
2017-12-06T01:46:34.366Z,11.30
2017-12-06T01:49:01.982Z,12.83
2017-12-06T01:51:30.385Z,12.97
2017-12-06T01:53:58.017Z,12.60
2017-12-06T01:56:25.690Z,11.87
2017-12-06T01:58:54.078Z,12.13
2017-12-06T02:01:22.471Z,12.03
2017-12-06T02:03:50.229Z,11.73
2017-12-06T02:06:17.842Z,11.87
2017-12-06T02:08:46.461Z,12.57
2017-12-06T02:11:15.892Z,12.07
2017-12-06T02:13:43.539Z,11.93
2017-12-06T02:16:11.938Z,11.10
2017-12-06T02:18:39.581Z,11.20
2017-12-06T02:21:07.962Z,11.33
2017-12-06T02:23:35.725Z,11.77
2017-12-06T02:26:03.337Z,11.10
2017-12-06T02:28:30.946Z,11.33
2017-12-06T02:30:59.465Z,10.97
2017-12-06T02:33:27.073Z,11.43
2017-12-06T02:35:55.450Z,10.87
2017-12-06T02:38:23.842Z,10.67
2017-12-06T02:41:03.977Z,11.50
2017-12-06T02:43:43.326Z,10.97
2017-12-06T02:46:11.755Z,12.03
2017-12-06T02:48:39.382Z,11.73
2017-12-06T02:51:07.038Z,11.97
2017-12-06T02:53:35.418Z,11.53
2017-12-06T02:56:03.812Z,10.93
2017-12-06T02:58:31.435Z,11.23
2017-12-06T03:00:59.076Z,11.83
2017-12-06T03:03:26.730Z,12.10
2017-12-06T03:05:54.356Z,12.30
2017-12-06T03:08:22.028Z,13.57
2017-12-06T03:10:49.711Z,13.23
2017-12-06T03:13:17.371Z,13.07
2017-12-06T03:15:45.004Z,11.37
2017-12-06T03:18:12.663Z,12.07
2017-12-06T03:20:40.278Z,11.60
2017-12-06T03:23:07.929Z,10.93
2017-12-06T03:25:35.540Z,10.93
2017-12-06T03:28:03.955Z,11.90
2017-12-06T03:30:31.582Z,9.47
2017-12-06T03:32:59.953Z,8.03
2017-12-06T03:35:28.378Z,8.50
2017-12-06T03:37:55.987Z,9.67
2017-12-06T03:40:24.387Z,8.33
2017-12-06T03:42:51.982Z,8.33
2017-12-06T03:45:19.649Z,8.60
2017-12-06T03:47:47.268Z,8.50
2017-12-06T03:50:14.893Z,8.73
2017-12-06T03:52:42.513Z,7.87
2017-12-06T03:55:10.120Z,8.17
2017-12-06T03:57:37.733Z,8.70
2017-12-06T04:00:05.345Z,9.33
2017-12-06T04:02:33.744Z,9.13
2017-12-06T04:05:02.102Z,8.90
2017-12-06T04:07:29.723Z,7.97
2017-12-06T04:09:57.368Z,8.67
2017-12-06T04:12:25.010Z,8.10
2017-12-06T04:14:53.364Z,8.83
2017-12-06T04:17:20.974Z,8.73
2017-12-06T04:19:48.599Z,9.00
2017-12-06T04:22:16.998Z,9.17
2017-12-06T04:24:44.635Z,9.07
2017-12-06T04:27:13.008Z,8.67
2017-12-06T04:29:41.404Z,8.37
2017-12-06T04:32:09.757Z,7.70
2017-12-06T04:34:37.392Z,7.90
2017-12-06T04:37:05.023Z,6.53
2017-12-06T04:39:32.666Z,6.83
2017-12-06T04:42:01.025Z,7.20
2017-12-06T04:44:28.717Z,7.17
2017-12-06T04:46:56.330Z,8.30
2017-12-06T04:49:23.985Z,8.83
2017-12-06T04:51:51.625Z,7.37
2017-12-06T04:54:19.216Z,7.20
2017-12-06T04:56:46.826Z,7.23
2017-12-06T04:59:14.474Z,9.00
2017-12-06T05:01:42.868Z,8.33
2017-12-06T05:04:10.650Z,8.17
2017-12-06T05:06:38.278Z,6.97
2017-12-06T05:09:06.685Z,8.93
2017-12-06T05:11:34.414Z,7.77
2017-12-06T05:14:02.821Z,7.17
2017-12-06T05:16:30.460Z,7.80
2017-12-06T05:18:58.848Z,7.63
2017-12-06T05:21:27.242Z,7.67
2017-12-06T05:23:54.890Z,8.13
2017-12-06T05:26:23.283Z,7.87
2017-12-06T05:28:50.907Z,6.93
2017-12-06T05:31:18.524Z,7.10
2017-12-06T05:33:46.162Z,7.07
2017-12-06T05:36:13.832Z,8.63
2017-12-06T05:38:41.465Z,7.93
2017-12-06T05:41:09.833Z,8.30
2017-12-06T05:43:37.479Z,8.00
2017-12-06T05:46:05.074Z,8.63
2017-12-06T05:48:33.499Z,8.70
2017-12-06T05:51:01.162Z,7.57
2017-12-06T05:53:28.773Z,7.73
2017-12-06T05:55:57.250Z,7.97
2017-12-06T05:58:25.634Z,8.27
2017-12-06T06:00:54.018Z,8.50
2017-12-06T06:03:22.431Z,8.73
2017-12-06T06:05:50.075Z,8.80
2017-12-06T06:08:17.667Z,9.27
2017-12-06T06:10:45.293Z,8.77
2017-12-06T06:13:12.897Z,9.63
2017-12-06T06:15:40.534Z,9.23
2017-12-06T06:18:08.298Z,8.10
2017-12-06T06:20:35.958Z,10.30
2017-12-06T06:23:03.572Z,7.53
2017-12-06T06:25:31.967Z,7.30
2017-12-06T06:28:00.349Z,8.17
2017-12-06T06:30:28.724Z,8.93
2017-12-06T06:32:57.122Z,7.83
2017-12-06T06:35:24.766Z,9.03
2017-12-06T06:37:53.133Z,9.17
2017-12-06T06:40:21.507Z,8.87
2017-12-06T06:42:49.119Z,8.10
2017-12-06T06:45:16.794Z,7.93
2017-12-06T06:47:44.522Z,8.37
2017-12-06T06:50:12.881Z,8.73
2017-12-06T06:52:41.289Z,7.93
2017-12-06T06:55:08.883Z,9.37
2017-12-06T06:57:36.508Z,9.37
2017-12-06T07:00:04.127Z,9.97
2017-12-06T07:02:31.754Z,20.90
2017-12-06T07:04:59.360Z,18.73
2017-12-06T07:07:27.755Z,9.30
2017-12-06T07:09:56.150Z,10.17
2017-12-06T07:12:23.781Z,10.17
2017-12-06T07:14:52.266Z,8.80
2017-12-06T07:17:20.693Z,10.83
2017-12-06T07:19:49.104Z,12.57
2017-12-06T07:22:16.789Z,13.47
2017-12-06T07:24:44.527Z,15.27
2017-12-06T07:27:12.136Z,14.40
2017-12-06T07:29:39.762Z,14.50
2017-12-06T07:32:07.377Z,14.47
2017-12-06T07:34:35.126Z,10.53
2017-12-06T07:37:02.774Z,10.63
2017-12-06T07:39:31.204Z,10.40
2017-12-06T07:41:58.815Z,7.33
2017-12-06T07:44:27.221Z,7.93
2017-12-06T07:46:54.818Z,7.90
2017-12-06T07:49:22.486Z,6.73
2017-12-06T07:51:50.090Z,7.97
2017-12-06T07:54:17.686Z,7.10
2017-12-06T07:56:45.358Z,7.57
2017-12-06T07:59:12.991Z,8.30
2017-12-06T08:01:40.634Z,8.37
2017-12-06T08:04:08.230Z,8.90
2017-12-06T08:06:35.870Z,8.80
2017-12-06T08:09:03.501Z,8.77
2017-12-06T08:11:31.973Z,9.00
2017-12-06T08:14:00.354Z,8.20
2017-12-06T08:16:28.739Z,9.27
2017-12-06T08:18:57.153Z,8.90
2017-12-06T08:21:24.782Z,8.67
2017-12-06T08:23:53.180Z,8.70
2017-12-06T08:26:20.769Z,8.57
2017-12-06T08:28:48.394Z,9.43
2017-12-06T08:31:16.021Z,9.23
2017-12-06T08:33:43.659Z,8.20
2017-12-06T08:36:11.259Z,7.60
2017-12-06T08:38:39.705Z,7.50
2017-12-06T08:41:08.110Z,9.80
2017-12-06T08:43:35.739Z,13.93
2017-12-06T08:46:03.348Z,9.33
2017-12-06T08:48:31.775Z,8.67
2017-12-06T08:50:59.405Z,9.53
2017-12-06T08:53:27.034Z,8.37
2017-12-06T08:55:54.644Z,9.07
2017-12-06T08:58:22.235Z,8.70
2017-12-06T09:00:49.854Z,7.27
2017-12-06T09:03:17.561Z,10.83
2017-12-06T09:05:45.182Z,9.33
2017-12-06T09:08:12.853Z,10.70
2017-12-06T09:10:40.514Z,10.60
2017-12-06T09:13:08.116Z,11.07
2017-12-06T09:15:35.718Z,9.73
2017-12-06T09:18:03.350Z,9.33
2017-12-06T09:20:30.963Z,9.20
2017-12-06T09:22:58.596Z,10.40
2017-12-06T09:25:27.026Z,10.47
2017-12-06T09:27:55.432Z,10.00
2017-12-06T09:30:23.092Z,9.90
2017-12-06T09:32:50.726Z,10.07
2017-12-06T09:35:18.421Z,8.43
2017-12-06T09:37:46.040Z,7.70
2017-12-06T09:40:13.650Z,9.30
2017-12-06T09:42:42.046Z,8.40
2017-12-06T09:45:09.642Z,8.80
2017-12-06T09:47:37.283Z,8.80
2017-12-06T09:50:04.952Z,9.23
2017-12-06T09:52:32.611Z,10.20
2017-12-06T09:55:00.250Z,20.20
2017-12-06T09:57:28.689Z,11.07
2017-12-06T09:59:56.367Z,9.53
2017-12-06T10:02:24.011Z,8.63
2017-12-06T10:04:51.662Z,9.37
2017-12-06T10:07:19.289Z,8.83
2017-12-06T10:09:46.911Z,9.13
2017-12-06T10:12:14.527Z,9.73
2017-12-06T10:14:42.162Z,8.57
2017-12-06T10:17:10.559Z,8.00
2017-12-06T10:19:38.242Z,9.50
2017-12-06T10:22:05.891Z,10.63
2017-12-06T10:24:33.557Z,9.87
2017-12-06T10:27:01.182Z,10.23
2017-12-06T10:29:28.795Z,8.53
2017-12-06T10:31:56.454Z,9.73
2017-12-06T10:34:24.934Z,8.60
2017-12-06T10:36:52.567Z,9.23
2017-12-06T10:39:20.170Z,8.47
2017-12-06T10:41:47.837Z,7.57
2017-12-06T10:44:15.516Z,8.03
2017-12-06T10:46:43.110Z,8.37
2017-12-06T10:49:10.731Z,7.90
2017-12-06T10:51:38.355Z,8.30
2017-12-06T10:54:05.978Z,6.60
2017-12-06T10:56:34.367Z,7.67
2017-12-06T10:59:02.017Z,8.20
2017-12-06T11:01:30.405Z,6.70
2017-12-06T11:03:58.819Z,5.63
2017-12-06T11:06:26.441Z,6.43
2017-12-06T11:08:54.803Z,5.30
2017-12-06T11:11:23.217Z,6.47
2017-12-06T11:13:50.854Z,7.30
2017-12-06T11:16:19.321Z,10.13
2017-12-06T11:18:46.947Z,7.57
2017-12-06T11:21:14.569Z,10.20
2017-12-06T11:23:42.972Z,5.10
2017-12-06T11:26:10.598Z,6.23
2017-12-06T11:28:39.023Z,5.40
2017-12-06T11:31:06.640Z,5.10
2017-12-06T11:33:34.543Z,6.43
2017-12-06T11:36:02.148Z,6.70
2017-12-06T11:38:29.795Z,5.63
2017-12-06T11:40:57.434Z,4.60
2017-12-06T11:43:25.082Z,4.80
2017-12-06T11:45:52.691Z,5.17
2017-12-06T11:48:20.312Z,4.53
2017-12-06T11:50:47.932Z,5.10
2017-12-06T11:53:16.328Z,6.10
2017-12-06T11:55:44.699Z,4.10
2017-12-06T11:58:13.125Z,3.93
2017-12-06T12:00:40.797Z,4.03
2017-12-06T12:03:08.425Z,5.30
2017-12-06T12:05:36.148Z,4.70
2017-12-06T12:08:03.834Z,5.40
2017-12-06T12:10:31.505Z,6.00
2017-12-06T12:12:59.140Z,17.23
2017-12-06T12:15:26.780Z,6.17
2017-12-06T12:17:54.419Z,4.27
2017-12-06T12:20:22.069Z,4.50
2017-12-06T12:22:49.722Z,4.67
2017-12-06T12:25:17.340Z,5.03
2017-12-06T12:27:45.742Z,4.37
2017-12-06T12:30:14.122Z,4.73
2017-12-06T12:32:42.553Z,4.77
2017-12-06T12:35:10.201Z,4.60
2017-12-06T12:37:37.998Z,4.10
2017-12-06T12:40:06.493Z,3.93
2017-12-06T12:42:37.806Z,4.60
2017-12-06T12:45:05.410Z,3.77
2017-12-06T12:47:33.804Z,4.67
2017-12-06T12:50:02.140Z,5.20
2017-12-06T12:52:29.722Z,5.07
2017-12-06T12:54:58.101Z,6.10
2017-12-06T12:57:26.462Z,5.20
2017-12-06T12:59:54.102Z,4.10
2017-12-06T13:02:21.694Z,6.30
2017-12-06T13:04:49.305Z,6.10
2017-12-06T13:07:16.917Z,8.03
2017-12-06T13:09:44.527Z,6.23
2017-12-06T13:12:12.157Z,8.63
2017-12-06T13:14:40.547Z,4.70
2017-12-06T13:17:08.119Z,4.90
2017-12-06T13:19:35.738Z,5.97
2017-12-06T13:22:03.333Z,4.67
2017-12-06T13:24:30.940Z,5.33
2017-12-06T13:26:58.557Z,5.40
2017-12-06T13:29:26.179Z,12.50
2017-12-06T13:31:53.792Z,12.60
2017-12-06T13:34:21.434Z,6.27
2017-12-06T13:36:49.815Z,7.70
2017-12-06T13:39:17.401Z,7.87
2017-12-06T13:41:44.989Z,5.13
2017-12-06T13:44:12.571Z,5.10
2017-12-06T13:46:40.963Z,5.87
2017-12-06T13:49:09.323Z,6.90
2017-12-06T13:51:36.946Z,6.03
2017-12-06T13:54:04.559Z,5.40
2017-12-06T13:56:32.922Z,6.20
2017-12-06T13:59:00.517Z,6.43
2017-12-06T14:01:28.140Z,5.80
2017-12-06T14:03:58.707Z,6.90
2017-12-06T14:06:26.338Z,6.30
2017-12-06T14:08:54.887Z,6.60
2017-12-06T14:11:23.349Z,7.53
2017-12-06T14:13:50.939Z,7.43
2017-12-06T14:16:18.624Z,5.40
2017-12-06T14:18:46.245Z,7.20
2017-12-06T14:21:14.003Z,6.57
2017-12-06T14:23:42.449Z,6.60
2017-12-06T14:26:10.785Z,5.53
2017-12-06T14:28:38.419Z,5.60
2017-12-06T14:31:06.050Z,9.83
2017-12-06T14:33:34.442Z,8.23
2017-12-06T14:36:02.055Z,13.47
2017-12-06T14:38:29.669Z,7.30
2017-12-06T14:40:57.278Z,7.83
2017-12-06T14:43:24.929Z,6.53
2017-12-06T14:45:53.300Z,5.90
2017-12-06T14:48:20.962Z,7.60
2017-12-06T14:50:48.587Z,7.23
2017-12-06T14:53:16.168Z,7.20
2017-12-06T14:55:43.910Z,6.97
2017-12-06T14:58:11.524Z,7.67
2017-12-06T15:00:39.162Z,7.13
2017-12-06T15:03:06.778Z,7.13
2017-12-06T15:05:35.131Z,7.80
2017-12-06T15:08:02.743Z,6.40
2017-12-06T15:10:30.360Z,8.50
2017-12-06T15:12:57.951Z,6.47
2017-12-06T15:15:25.545Z,7.83
2017-12-06T15:17:53.230Z,7.87
2017-12-06T15:20:20.849Z,7.97
2017-12-06T15:22:48.454Z,7.63
2017-12-06T15:25:16.046Z,12.63
2017-12-06T15:27:44.470Z,14.73
2017-12-06T15:30:12.066Z,8.30
2017-12-06T15:32:39.678Z,11.67
2017-12-06T15:35:07.425Z,8.57
2017-12-06T15:37:35.025Z,8.87
2017-12-06T15:40:02.646Z,8.63
2017-12-06T15:42:31.015Z,8.80
2017-12-06T15:44:59.404Z,7.90
2017-12-06T15:47:27.767Z,8.40
2017-12-06T15:49:56.166Z,8.57
2017-12-06T15:52:23.833Z,17.17
2017-12-06T15:54:51.474Z,22.00
2017-12-06T15:57:19.886Z,10.10
2017-12-06T15:59:47.514Z,16.23
2017-12-06T16:02:16.012Z,21.43
2017-12-06T16:04:43.641Z,10.80
2017-12-06T16:07:11.298Z,10.13
2017-12-06T16:09:38.902Z,11.13
2017-12-06T16:12:06.530Z,9.47
2017-12-06T16:14:34.182Z,9.73
2017-12-06T16:17:01.819Z,9.77
2017-12-06T16:19:29.478Z,10.00
2017-12-06T16:21:57.099Z,8.63
2017-12-06T16:24:25.468Z,8.57
2017-12-06T16:26:53.857Z,10.23
2017-12-06T16:29:22.297Z,9.07
2017-12-06T16:31:49.914Z,10.07
2017-12-06T16:34:17.574Z,9.67
2017-12-06T16:36:56.903Z,9.33
2017-12-06T16:39:24.553Z,8.43
2017-12-06T16:41:52.942Z,9.37
2017-12-06T16:44:20.574Z,8.10
2017-12-06T16:46:48.955Z,9.00
2017-12-06T16:49:17.329Z,10.60
2017-12-06T16:51:44.947Z,9.07
2017-12-06T16:54:12.557Z,9.27
2017-12-06T16:56:40.175Z,10.50
2017-12-06T16:59:07.760Z,10.10
2017-12-06T17:01:35.371Z,10.27
2017-12-06T17:04:02.971Z,11.30
2017-12-06T17:06:30.574Z,9.57
2017-12-06T17:08:58.961Z,9.57
2017-12-06T17:11:26.622Z,12.87
2017-12-06T17:13:55.054Z,12.43
2017-12-06T17:16:22.635Z,14.53
2017-12-06T17:18:50.268Z,17.53
2017-12-06T17:21:17.934Z,11.20
2017-12-06T17:23:45.900Z,12.50
2017-12-06T17:26:13.512Z,10.00
2017-12-06T17:28:53.074Z,10.70
2017-12-06T17:31:32.493Z,12.50
2017-12-06T17:34:00.898Z,11.93
2017-12-06T17:36:28.515Z,11.90
2017-12-06T17:38:56.904Z,11.07
2017-12-06T17:41:25.327Z,10.07
2017-12-06T17:43:52.919Z,10.40
2017-12-06T17:46:20.758Z,9.97
2017-12-06T17:48:48.450Z,13.20
2017-12-06T17:51:16.041Z,11.53
2017-12-06T17:53:43.714Z,9.13
2017-12-06T17:56:11.326Z,10.73
2017-12-06T17:58:38.937Z,11.60
2017-12-06T18:01:06.514Z,13.77
2017-12-06T18:03:34.930Z,13.23
2017-12-06T18:06:02.546Z,13.00
2017-12-06T18:08:30.135Z,12.13
2017-12-06T18:10:57.745Z,11.03
2017-12-06T18:13:26.141Z,10.97
2017-12-06T18:15:53.777Z,11.80
2017-12-06T18:18:22.142Z,12.13
2017-12-06T18:20:49.765Z,12.00
2017-12-06T18:23:17.385Z,12.03
2017-12-06T18:25:45.760Z,13.43
2017-12-06T18:28:14.161Z,12.80
2017-12-06T18:30:41.884Z,11.97
2017-12-06T18:33:09.489Z,10.03
2017-12-06T18:35:37.102Z,6.80
2017-12-06T18:38:04.714Z,7.50
2017-12-06T18:40:32.362Z,8.73
2017-12-06T18:42:59.997Z,8.43
2017-12-06T18:45:27.670Z,8.90
2017-12-06T18:47:55.338Z,9.60
2017-12-06T18:50:23.737Z,10.43
2017-12-06T18:52:51.350Z,11.93
2017-12-06T18:55:18.992Z,13.13
2017-12-06T18:57:46.653Z,10.37
2017-12-06T19:00:14.261Z,11.07
2017-12-06T19:02:41.900Z,11.33
2017-12-06T19:05:09.546Z,11.90
2017-12-06T19:07:37.208Z,13.80
2017-12-06T19:10:04.859Z,8.90
2017-12-06T19:12:32.491Z,9.53
2017-12-06T19:15:00.130Z,10.53
2017-12-06T19:17:28.514Z,11.20
2017-12-06T19:19:56.913Z,13.07
2017-12-06T19:22:24.562Z,12.40
2017-12-06T19:24:52.211Z,12.93
2017-12-06T19:27:20.618Z,14.80
2017-12-06T19:29:48.302Z,13.50
2017-12-06T19:32:15.955Z,13.40
2017-12-06T19:34:43.616Z,13.47
2017-12-06T19:37:11.229Z,12.03
2017-12-06T19:39:38.926Z,11.73
2017-12-06T19:42:06.522Z,13.13
2017-12-06T19:44:34.149Z,14.03
2017-12-06T19:47:02.656Z,14.33
2017-12-06T19:49:30.405Z,15.17
2017-12-06T19:51:58.065Z,14.17
2017-12-06T19:54:25.707Z,12.97
2017-12-06T19:56:53.347Z,14.33
2017-12-06T19:59:21.734Z,12.90
2017-12-06T20:01:50.146Z,12.30
2017-12-06T20:04:17.786Z,13.60
2017-12-06T20:06:45.414Z,12.03
2017-12-06T20:09:13.071Z,13.10
2017-12-06T20:11:40.859Z,13.17
2017-12-06T20:14:08.531Z,12.77
2017-12-06T20:16:36.933Z,11.63
2017-12-06T20:19:04.572Z,10.33
2017-12-06T20:21:32.933Z,11.77
2017-12-06T20:24:00.593Z,12.37
2017-12-06T20:26:28.202Z,12.77
2017-12-06T20:28:55.837Z,12.73
2017-12-06T20:31:23.475Z,10.33
2017-12-06T20:33:51.181Z,10.80
2017-12-06T20:36:19.583Z,10.90
2017-12-06T20:38:47.251Z,11.77
2017-12-06T20:41:14.879Z,12.40
2017-12-06T20:43:42.514Z,12.77
2017-12-06T20:46:10.938Z,13.03
2017-12-06T20:48:38.581Z,13.77
2017-12-06T20:51:06.232Z,13.17
2017-12-06T20:53:34.626Z,13.97
2017-12-06T20:56:02.266Z,14.97
2017-12-06T20:58:30.628Z,14.87
2017-12-06T21:00:58.238Z,16.57
2017-12-06T21:03:25.956Z,16.00
2017-12-06T21:05:54.359Z,15.47
2017-12-06T21:08:22.757Z,15.63
2017-12-06T21:10:50.401Z,16.03
2017-12-06T21:13:18.817Z,15.90
2017-12-06T21:15:46.453Z,17.37
2017-12-06T21:18:14.073Z,19.30
2017-12-06T21:20:41.697Z,18.20
2017-12-06T21:23:09.359Z,19.33
2017-12-06T21:25:37.000Z,21.97
2017-12-06T21:28:04.619Z,22.57
2017-12-06T21:30:32.298Z,20.20
2017-12-06T21:33:00.674Z,20.27
2017-12-06T21:35:29.090Z,21.30
2017-12-06T21:37:56.725Z,22.77
2017-12-06T21:40:25.140Z,24.27
2017-12-06T21:42:52.761Z,21.90
2017-12-06T21:45:21.175Z,23.13
2017-12-06T21:47:48.862Z,23.30
2017-12-06T21:50:16.544Z,22.83
2017-12-06T21:52:44.293Z,23.33
2017-12-06T21:55:11.957Z,23.43
2017-12-06T21:57:39.647Z,23.10
2017-12-06T22:00:08.028Z,23.27
2017-12-06T22:02:36.493Z,23.90
2017-12-06T22:05:04.068Z,22.43
2017-12-06T22:07:32.783Z,23.40
2017-12-06T22:10:01.161Z,24.43
2017-12-06T22:12:28.799Z,24.43
2017-12-06T22:14:57.221Z,23.77
2017-12-06T22:17:24.883Z,23.47
2017-12-06T22:19:52.558Z,24.27
2017-12-06T22:22:20.226Z,23.47
2017-12-06T22:24:47.874Z,23.87
2017-12-06T22:27:15.518Z,24.53
2017-12-06T22:29:43.158Z,22.30
2017-12-06T22:32:11.537Z,22.70
2017-12-06T22:34:39.948Z,22.80
2017-12-06T22:37:07.576Z,23.43
2017-12-06T22:39:35.249Z,23.20
2017-12-06T22:42:03.640Z,21.83
2017-12-06T22:44:31.275Z,23.13
2017-12-06T22:46:59.799Z,23.40
2017-12-06T22:49:27.450Z,23.43
2017-12-06T22:51:55.080Z,22.83
2017-12-06T22:54:23.488Z,23.27
2017-12-06T22:56:51.137Z,24.20
2017-12-06T22:59:20.186Z,24.57
2017-12-06T23:01:47.817Z,24.87
2017-12-06T23:04:15.422Z,24.57
2017-12-06T23:06:43.050Z,24.67
2017-12-06T23:09:10.676Z,24.20
2017-12-06T23:11:39.079Z,24.80
2017-12-06T23:14:06.707Z,24.87
2017-12-06T23:16:35.108Z,25.17
2017-12-06T23:19:02.747Z,23.23
2017-12-06T23:21:31.135Z,23.20
2017-12-06T23:23:58.773Z,22.80
2017-12-06T23:26:27.162Z,23.63
2017-12-06T23:28:55.642Z,25.10
2017-12-06T23:31:24.122Z,23.90
2017-12-06T23:33:52.522Z,25.93
2017-12-06T23:36:20.127Z,25.73
2017-12-06T23:38:47.763Z,25.90
2017-12-06T23:41:16.166Z,24.93
2017-12-06T23:43:43.798Z,24.90
2017-12-06T23:46:11.387Z,24.70
2017-12-06T23:48:39.019Z,25.27
2017-12-06T23:51:06.630Z,24.50
2017-12-06T23:53:34.270Z,26.70
2017-12-06T23:56:01.932Z,24.77
2017-12-06T23:58:29.549Z,25.00
